sensor_id;sensor_type;location;lat;lon;timestamp;P1;durP1;ratioP1;P2;durP2;ratioP2
21941;SDS011;11135;54.192;15.670;2023-05-07T00:02:11;6.78;;;3.58;;
21941;SDS011;11135;54.192;15.670;2023-05-07T00:05:19;10.25;;;4.80;;
21941;SDS011;11135;54.192;15.670;2023-05-07T00:08:28;12.40;;;4.55;;
21941;SDS011;11135;54.192;15.670;2023-05-07T00:11:35;8.63;;;3.72;;
21941;SDS011;11135;54.192;15.670;2023-05-07T00:14:41;7.82;;;4.07;;
21941;SDS011;11135;54.192;15.670;2023-05-07T00:17:47;6.88;;;3.60;;
21941;SDS011;11135;54.192;15.670;2023-05-07T00:20:54;8.00;;;4.78;;
21941;SDS011;11135;54.192;15.670;2023-05-07T00:24:06;10.68;;;3.85;;
21941;SDS011;11135;54.192;15.670;2023-05-07T00:27:16;7.90;;;3.90;;
21941;SDS011;11135;54.192;15.670;2023-05-07T00:30:23;6.65;;;4.10;;
21941;SDS011;11135;54.192;15.670;2023-05-07T00:33:30;8.95;;;4.97;;
21941;SDS011;11135;54.192;15.670;2023-05-07T00:36:38;15.35;;;4.65;;
21941;SDS011;11135;54.192;15.670;2023-05-07T00:39:51;12.80;;;4.68;;
21941;SDS011;11135;54.192;15.670;2023-05-07T00:42:58;10.48;;;4.40;;
21941;SDS011;11135;54.192;15.670;2023-05-07T00:46:05;12.30;;;5.25;;
21941;SDS011;11135;54.192;15.670;2023-05-07T00:49:11;9.40;;;4.78;;
21941;SDS011;11135;54.192;15.670;2023-05-07T00:52:17;11.23;;;4.95;;
21941;SDS011;11135;54.192;15.670;2023-05-07T00:55:30;9.88;;;4.22;;
21941;SDS011;11135;54.192;15.670;2023-05-07T00:58:42;7.90;;;4.32;;
21941;SDS011;11135;54.192;15.670;2023-05-07T01:01:49;7.30;;;3.63;;
21941;SDS011;11135;54.192;15.670;2023-05-07T01:05:00;8.68;;;3.83;;
21941;SDS011;11135;54.192;15.670;2023-05-07T01:08:07;7.95;;;3.78;;
21941;SDS011;11135;54.192;15.670;2023-05-07T01:11:19;10.23;;;3.78;;
21941;SDS011;11135;54.192;15.670;2023-05-07T01:14:27;8.68;;;4.10;;
21941;SDS011;11135;54.192;15.670;2023-05-07T01:17:36;13.77;;;5.40;;
21941;SDS011;11135;54.192;15.670;2023-05-07T01:20:41;9.77;;;5.05;;
21941;SDS011;11135;54.192;15.670;2023-05-07T01:23:50;11.63;;;5.72;;
21941;SDS011;11135;54.192;15.670;2023-05-07T01:26:56;9.85;;;5.00;;
21941;SDS011;11135;54.192;15.670;2023-05-07T01:30:04;11.23;;;4.57;;
21941;SDS011;11135;54.192;15.670;2023-05-07T01:33:11;10.13;;;5.40;;
21941;SDS011;11135;54.192;15.670;2023-05-07T01:36:19;8.55;;;4.18;;
21941;SDS011;11135;54.192;15.670;2023-05-07T01:39:31;9.50;;;3.97;;
21941;SDS011;11135;54.192;15.670;2023-05-07T01:42:37;9.65;;;4.65;;
21941;SDS011;11135;54.192;15.670;2023-05-07T01:45:43;8.38;;;4.00;;
21941;SDS011;11135;54.192;15.670;2023-05-07T01:48:51;7.13;;;4.07;;
21941;SDS011;11135;54.192;15.670;2023-05-07T01:51:56;8.77;;;4.03;;
21941;SDS011;11135;54.192;15.670;2023-05-07T01:55:06;9.43;;;4.78;;
21941;SDS011;11135;54.192;15.670;2023-05-07T01:58:11;9.60;;;4.50;;
21941;SDS011;11135;54.192;15.670;2023-05-07T02:01:18;8.85;;;4.10;;
21941;SDS011;11135;54.192;15.670;2023-05-07T02:04:25;9.18;;;4.80;;
21941;SDS011;11135;54.192;15.670;2023-05-07T02:07:31;10.00;;;5.78;;
21941;SDS011;11135;54.192;15.670;2023-05-07T02:10:43;11.38;;;5.22;;
21941;SDS011;11135;54.192;15.670;2023-05-07T02:13:49;10.15;;;5.10;;
21941;SDS011;11135;54.192;15.670;2023-05-07T02:16:55;10.82;;;4.72;;
21941;SDS011;11135;54.192;15.670;2023-05-07T02:20:00;10.95;;;5.60;;
21941;SDS011;11135;54.192;15.670;2023-05-07T02:23:08;7.47;;;4.15;;
21941;SDS011;11135;54.192;15.670;2023-05-07T02:26:16;6.88;;;4.47;;
21941;SDS011;11135;54.192;15.670;2023-05-07T02:29:21;8.70;;;4.30;;
21941;SDS011;11135;54.192;15.670;2023-05-07T02:32:27;10.95;;;4.70;;
21941;SDS011;11135;54.192;15.670;2023-05-07T02:35:37;13.40;;;5.43;;
21941;SDS011;11135;54.192;15.670;2023-05-07T02:38:44;9.00;;;4.40;;
21941;SDS011;11135;54.192;15.670;2023-05-07T02:41:54;10.02;;;4.72;;
21941;SDS011;11135;54.192;15.670;2023-05-07T02:45:01;8.40;;;4.60;;
21941;SDS011;11135;54.192;15.670;2023-05-07T02:48:09;10.02;;;4.20;;
21941;SDS011;11135;54.192;15.670;2023-05-07T02:51:17;8.32;;;4.72;;
21941;SDS011;11135;54.192;15.670;2023-05-07T02:54:24;11.73;;;4.88;;
21941;SDS011;11135;54.192;15.670;2023-05-07T02:57:33;9.85;;;4.47;;
21941;SDS011;11135;54.192;15.670;2023-05-07T03:00:38;10.02;;;5.65;;
21941;SDS011;11135;54.192;15.670;2023-05-07T03:03:45;10.30;;;5.10;;
21941;SDS011;11135;54.192;15.670;2023-05-07T03:06:51;9.98;;;4.95;;
21941;SDS011;11135;54.192;15.670;2023-05-07T03:09:57;14.48;;;5.97;;
21941;SDS011;11135;54.192;15.670;2023-05-07T03:13:07;10.38;;;4.75;;
21941;SDS011;11135;54.192;15.670;2023-05-07T03:16:13;9.27;;;4.28;;
21941;SDS011;11135;54.192;15.670;2023-05-07T03:19:18;7.50;;;4.30;;
21941;SDS011;11135;54.192;15.670;2023-05-07T03:22:25;12.00;;;5.03;;
21941;SDS011;11135;54.192;15.670;2023-05-07T03:25:32;12.57;;;5.60;;
21941;SDS011;11135;54.192;15.670;2023-05-07T03:28:41;8.82;;;4.65;;
21941;SDS011;11135;54.192;15.670;2023-05-07T03:31:46;10.85;;;5.07;;
21941;SDS011;11135;54.192;15.670;2023-05-07T03:34:51;8.98;;;4.43;;
21941;SDS011;11135;54.192;15.670;2023-05-07T03:37:57;8.70;;;4.43;;
21941;SDS011;11135;54.192;15.670;2023-05-07T03:41:03;9.02;;;4.72;;
21941;SDS011;11135;54.192;15.670;2023-05-07T03:44:12;8.68;;;4.03;;
21941;SDS011;11135;54.192;15.670;2023-05-07T03:47:21;7.43;;;4.28;;
21941;SDS011;11135;54.192;15.670;2023-05-07T03:50:26;8.50;;;4.03;;
21941;SDS011;11135;54.192;15.670;2023-05-07T03:53:31;7.72;;;3.85;;
21941;SDS011;11135;54.192;15.670;2023-05-07T03:56:46;9.52;;;4.60;;
21941;SDS011;11135;54.192;15.670;2023-05-07T03:59:54;9.32;;;4.10;;
21941;SDS011;11135;54.192;15.670;2023-05-07T04:02:59;10.07;;;3.95;;
21941;SDS011;11135;54.192;15.670;2023-05-07T04:06:06;12.15;;;4.03;;
21941;SDS011;11135;54.192;15.670;2023-05-07T04:09:11;8.60;;;3.45;;
21941;SDS011;11135;54.192;15.670;2023-05-07T04:12:19;13.13;;;5.97;;
21941;SDS011;11135;54.192;15.670;2023-05-07T04:15:28;8.77;;;5.03;;
21941;SDS011;11135;54.192;15.670;2023-05-07T04:21:43;6.25;;;3.90;;
21941;SDS011;11135;54.192;15.670;2023-05-07T04:24:49;8.48;;;4.60;;
21941;SDS011;11135;54.192;15.670;2023-05-07T04:27:54;7.78;;;4.00;;
21941;SDS011;11135;54.192;15.670;2023-05-07T04:31:03;9.20;;;4.30;;
21941;SDS011;11135;54.192;15.670;2023-05-07T04:34:10;8.60;;;4.20;;
21941;SDS011;11135;54.192;15.670;2023-05-07T04:37:18;10.13;;;4.90;;
21941;SDS011;11135;54.192;15.670;2023-05-07T04:40:23;8.20;;;4.28;;
21941;SDS011;11135;54.192;15.670;2023-05-07T04:43:29;7.70;;;4.45;;
21941;SDS011;11135;54.192;15.670;2023-05-07T04:46:39;7.68;;;4.32;;
21941;SDS011;11135;54.192;15.670;2023-05-07T04:49:45;8.60;;;3.63;;
21941;SDS011;11135;54.192;15.670;2023-05-07T04:52:50;6.60;;;4.57;;
21941;SDS011;11135;54.192;15.670;2023-05-07T04:55:56;7.82;;;4.70;;
21941;SDS011;11135;54.192;15.670;2023-05-07T04:59:01;8.13;;;4.18;;
21941;SDS011;11135;54.192;15.670;2023-05-07T05:02:09;9.63;;;3.85;;
21941;SDS011;11135;54.192;15.670;2023-05-07T05:05:15;9.15;;;4.40;;
21941;SDS011;11135;54.192;15.670;2023-05-07T05:08:23;7.35;;;4.15;;
21941;SDS011;11135;54.192;15.670;2023-05-07T05:11:30;6.38;;;3.80;;
21941;SDS011;11135;54.192;15.670;2023-05-07T05:14:39;8.52;;;4.72;;
21941;SDS011;11135;54.192;15.670;2023-05-07T05:17:47;7.38;;;4.10;;
21941;SDS011;11135;54.192;15.670;2023-05-07T05:20:58;7.60;;;4.37;;
21941;SDS011;11135;54.192;15.670;2023-05-07T05:24:05;6.75;;;3.85;;
21941;SDS011;11135;54.192;15.670;2023-05-07T05:27:11;8.00;;;4.20;;
21941;SDS011;11135;54.192;15.670;2023-05-07T05:30:17;8.80;;;4.57;;
21941;SDS011;11135;54.192;15.670;2023-05-07T05:33:27;7.70;;;3.97;;
21941;SDS011;11135;54.192;15.670;2023-05-07T05:36:33;9.27;;;3.97;;
21941;SDS011;11135;54.192;15.670;2023-05-07T05:39:38;7.22;;;4.07;;
21941;SDS011;11135;54.192;15.670;2023-05-07T05:42:44;7.93;;;4.20;;
21941;SDS011;11135;54.192;15.670;2023-05-07T05:45:55;6.30;;;4.13;;
21941;SDS011;11135;54.192;15.670;2023-05-07T05:49:05;5.35;;;3.85;;
21941;SDS011;11135;54.192;15.670;2023-05-07T05:52:12;7.28;;;3.55;;
21941;SDS011;11135;54.192;15.670;2023-05-07T05:55:20;7.65;;;4.00;;
21941;SDS011;11135;54.192;15.670;2023-05-07T05:58:26;9.63;;;4.78;;
21941;SDS011;11135;54.192;15.670;2023-05-07T06:01:32;5.85;;;3.63;;
21941;SDS011;11135;54.192;15.670;2023-05-07T06:04:41;6.38;;;3.97;;
21941;SDS011;11135;54.192;15.670;2023-05-07T06:07:47;7.25;;;4.70;;
21941;SDS011;11135;54.192;15.670;2023-05-07T06:10:53;6.50;;;4.47;;
21941;SDS011;11135;54.192;15.670;2023-05-07T06:13:58;8.00;;;4.55;;
21941;SDS011;11135;54.192;15.670;2023-05-07T06:17:04;7.28;;;4.00;;
21941;SDS011;11135;54.192;15.670;2023-05-07T06:20:12;7.13;;;3.60;;
21941;SDS011;11135;54.192;15.670;2023-05-07T06:23:22;7.80;;;4.10;;
21941;SDS011;11135;54.192;15.670;2023-05-07T06:26:27;5.78;;;4.32;;
21941;SDS011;11135;54.192;15.670;2023-05-07T06:29:32;8.15;;;4.25;;
21941;SDS011;11135;54.192;15.670;2023-05-07T06:32:37;6.78;;;4.78;;
21941;SDS011;11135;54.192;15.670;2023-05-07T06:35:45;5.80;;;3.83;;
21941;SDS011;11135;54.192;15.670;2023-05-07T06:38:52;8.38;;;3.92;;
21941;SDS011;11135;54.192;15.670;2023-05-07T06:41:59;8.55;;;4.75;;
21941;SDS011;11135;54.192;15.670;2023-05-07T06:45:10;8.13;;;4.13;;
21941;SDS011;11135;54.192;15.670;2023-05-07T06:48:15;9.68;;;3.90;;
21941;SDS011;11135;54.192;15.670;2023-05-07T06:51:25;11.45;;;4.68;;
21941;SDS011;11135;54.192;15.670;2023-05-07T06:54:34;6.65;;;4.20;;
21941;SDS011;11135;54.192;15.670;2023-05-07T06:57:39;7.88;;;4.40;;
21941;SDS011;11135;54.192;15.670;2023-05-07T07:00:48;6.10;;;3.92;;
21941;SDS011;11135;54.192;15.670;2023-05-07T07:03:53;7.28;;;4.00;;
21941;SDS011;11135;54.192;15.670;2023-05-07T07:07:03;6.45;;;3.72;;
21941;SDS011;11135;54.192;15.670;2023-05-07T07:10:08;6.72;;;3.80;;
21941;SDS011;11135;54.192;15.670;2023-05-07T07:13:14;8.25;;;4.38;;
21941;SDS011;11135;54.192;15.670;2023-05-07T07:16:20;7.45;;;4.45;;
21941;SDS011;11135;54.192;15.670;2023-05-07T07:19:31;7.95;;;4.45;;
21941;SDS011;11135;54.192;15.670;2023-05-07T07:22:39;6.18;;;4.00;;
21941;SDS011;11135;54.192;15.670;2023-05-07T07:25:46;7.07;;;4.32;;
21941;SDS011;11135;54.192;15.670;2023-05-07T07:28:51;7.05;;;4.00;;
21941;SDS011;11135;54.192;15.670;2023-05-07T07:31:57;6.05;;;3.75;;
21941;SDS011;11135;54.192;15.670;2023-05-07T07:35:03;8.15;;;4.35;;
21941;SDS011;11135;54.192;15.670;2023-05-07T07:38:11;6.57;;;4.22;;
21941;SDS011;11135;54.192;15.670;2023-05-07T07:45:08;7.75;;;5.18;;
21941;SDS011;11135;54.192;15.670;2023-05-07T07:48:13;7.82;;;4.93;;
21941;SDS011;11135;54.192;15.670;2023-05-07T07:51:21;8.38;;;5.32;;
21941;SDS011;11135;54.192;15.670;2023-05-07T07:54:32;9.85;;;5.45;;
21941;SDS011;11135;54.192;15.670;2023-05-07T07:57:37;8.32;;;5.32;;
21941;SDS011;11135;54.192;15.670;2023-05-07T08:00:44;8.65;;;5.50;;
21941;SDS011;11135;54.192;15.670;2023-05-07T08:03:49;8.90;;;5.65;;
21941;SDS011;11135;54.192;15.670;2023-05-07T08:06:55;8.82;;;5.43;;
21941;SDS011;11135;54.192;15.670;2023-05-07T08:10:03;8.13;;;5.72;;
21941;SDS011;11135;54.192;15.670;2023-05-07T08:13:14;7.20;;;5.45;;
21941;SDS011;11135;54.192;15.670;2023-05-07T08:16:20;9.45;;;5.35;;
21941;SDS011;11135;54.192;15.670;2023-05-07T08:19:27;9.30;;;5.10;;
21941;SDS011;11135;54.192;15.670;2023-05-07T08:22:36;11.00;;;6.05;;
21941;SDS011;11135;54.192;15.670;2023-05-07T08:25:45;8.65;;;5.75;;
21941;SDS011;11135;54.192;15.670;2023-05-07T08:28:54;8.48;;;5.70;;
21941;SDS011;11135;54.192;15.670;2023-05-07T08:32:00;9.25;;;5.50;;
21941;SDS011;11135;54.192;15.670;2023-05-07T08:35:07;8.38;;;5.55;;
21941;SDS011;11135;54.192;15.670;2023-05-07T08:38:13;9.52;;;5.32;;
21941;SDS011;11135;54.192;15.670;2023-05-07T08:41:21;8.48;;;5.40;;
21941;SDS011;11135;54.192;15.670;2023-05-07T08:44:26;8.07;;;4.65;;
21941;SDS011;11135;54.192;15.670;2023-05-07T08:47:34;9.68;;;5.72;;
21941;SDS011;11135;54.192;15.670;2023-05-07T08:50:44;8.90;;;5.63;;
21941;SDS011;11135;54.192;15.670;2023-05-07T08:53:52;9.60;;;5.50;;
21941;SDS011;11135;54.192;15.670;2023-05-07T08:57:02;7.40;;;4.43;;
21941;SDS011;11135;54.192;15.670;2023-05-07T09:00:10;10.18;;;5.78;;
21941;SDS011;11135;54.192;15.670;2023-05-07T09:03:17;8.52;;;5.50;;
21941;SDS011;11135;54.192;15.670;2023-05-07T09:06:22;8.27;;;5.00;;
21941;SDS011;11135;54.192;15.670;2023-05-07T09:09:28;10.07;;;5.07;;
21941;SDS011;11135;54.192;15.670;2023-05-07T09:12:36;9.10;;;4.82;;
21941;SDS011;11135;54.192;15.670;2023-05-07T09:15:43;8.20;;;4.72;;
21941;SDS011;11135;54.192;15.670;2023-05-07T09:18:50;9.45;;;5.22;;
21941;SDS011;11135;54.192;15.670;2023-05-07T09:21:59;8.93;;;5.63;;
21941;SDS011;11135;54.192;15.670;2023-05-07T09:25:05;8.23;;;4.65;;
21941;SDS011;11135;54.192;15.670;2023-05-07T09:28:15;8.82;;;5.07;;
21941;SDS011;11135;54.192;15.670;2023-05-07T09:31:20;8.35;;;5.15;;
21941;SDS011;11135;54.192;15.670;2023-05-07T09:34:31;7.63;;;5.00;;
21941;SDS011;11135;54.192;15.670;2023-05-07T09:37:36;10.25;;;4.90;;
21941;SDS011;11135;54.192;15.670;2023-05-07T09:40:46;8.90;;;5.80;;
21941;SDS011;11135;54.192;15.670;2023-05-07T09:47:14;9.10;;;6.25;;
21941;SDS011;11135;54.192;15.670;2023-05-07T09:50:25;10.52;;;6.30;;
21941;SDS011;11135;54.192;15.670;2023-05-07T09:53:31;9.63;;;5.55;;
21941;SDS011;11135;54.192;15.670;2023-05-07T09:56:38;11.25;;;6.43;;
21941;SDS011;11135;54.192;15.670;2023-05-07T09:59:47;8.30;;;4.97;;
21941;SDS011;11135;54.192;15.670;2023-05-07T10:02:57;6.97;;;5.00;;
21941;SDS011;11135;54.192;15.670;2023-05-07T10:06:02;7.13;;;5.10;;
21941;SDS011;11135;54.192;15.670;2023-05-07T10:09:08;11.05;;;5.07;;
21941;SDS011;11135;54.192;15.670;2023-05-07T10:12:14;6.75;;;4.45;;
21941;SDS011;11135;54.192;15.670;2023-05-07T10:15:20;6.45;;;4.43;;
21941;SDS011;11135;54.192;15.670;2023-05-07T10:18:29;6.82;;;4.47;;
21941;SDS011;11135;54.192;15.670;2023-05-07T10:21:36;5.80;;;4.15;;
21941;SDS011;11135;54.192;15.670;2023-05-07T10:24:43;7.80;;;4.45;;
21941;SDS011;11135;54.192;15.670;2023-05-07T10:27:51;6.35;;;4.75;;
21941;SDS011;11135;54.192;15.670;2023-05-07T10:31:02;8.60;;;4.72;;
21941;SDS011;11135;54.192;15.670;2023-05-07T10:34:14;7.10;;;4.65;;
21941;SDS011;11135;54.192;15.670;2023-05-07T10:37:20;7.40;;;4.75;;
21941;SDS011;11135;54.192;15.670;2023-05-07T10:40:27;5.93;;;4.45;;
21941;SDS011;11135;54.192;15.670;2023-05-07T10:43:39;6.68;;;4.50;;
21941;SDS011;11135;54.192;15.670;2023-05-07T10:46:58;7.55;;;3.88;;
21941;SDS011;11135;54.192;15.670;2023-05-07T10:50:22;7.63;;;5.13;;
21941;SDS011;11135;54.192;15.670;2023-05-07T10:53:28;7.60;;;4.07;;
21941;SDS011;11135;54.192;15.670;2023-05-07T10:56:33;6.78;;;4.13;;
21941;SDS011;11135;54.192;15.670;2023-05-07T10:59:40;8.55;;;4.80;;
21941;SDS011;11135;54.192;15.670;2023-05-07T11:03:09;6.73;;;4.37;;
21941;SDS011;11135;54.192;15.670;2023-05-07T11:06:17;6.28;;;4.10;;
21941;SDS011;11135;54.192;15.670;2023-05-07T11:09:22;5.90;;;3.58;;
21941;SDS011;11135;54.192;15.670;2023-05-07T11:12:46;6.88;;;3.90;;
21941;SDS011;11135;54.192;15.670;2023-05-07T11:15:52;8.77;;;4.80;;
21941;SDS011;11135;54.192;15.670;2023-05-07T11:18:58;5.57;;;3.50;;
21941;SDS011;11135;54.192;15.670;2023-05-07T11:22:06;7.30;;;3.53;;
21941;SDS011;11135;54.192;15.670;2023-05-07T11:25:31;6.85;;;3.83;;
21941;SDS011;11135;54.192;15.670;2023-05-07T11:28:38;7.55;;;3.50;;
21941;SDS011;11135;54.192;15.670;2023-05-07T11:31:53;8.32;;;3.63;;
21941;SDS011;11135;54.192;15.670;2023-05-07T11:35:00;6.00;;;3.50;;
21941;SDS011;11135;54.192;15.670;2023-05-07T11:38:09;5.40;;;3.05;;
21941;SDS011;11135;54.192;15.670;2023-05-07T11:41:36;8.02;;;3.95;;
21941;SDS011;11135;54.192;15.670;2023-05-07T11:44:45;7.03;;;4.13;;
21941;SDS011;11135;54.192;15.670;2023-05-07T11:47:51;8.18;;;3.95;;
21941;SDS011;11135;54.192;15.670;2023-05-07T11:51:00;7.50;;;3.60;;
21941;SDS011;11135;54.192;15.670;2023-05-07T11:54:08;9.02;;;3.50;;
21941;SDS011;11135;54.192;15.670;2023-05-07T11:57:17;7.63;;;3.63;;
21941;SDS011;11135;54.192;15.670;2023-05-07T12:00:23;6.40;;;3.83;;
21941;SDS011;11135;54.192;15.670;2023-05-07T12:03:29;4.68;;;3.17;;
21941;SDS011;11135;54.192;15.670;2023-05-07T12:06:37;6.30;;;3.67;;
21941;SDS011;11135;54.192;15.670;2023-05-07T12:09:47;7.20;;;4.43;;
21941;SDS011;11135;54.192;15.670;2023-05-07T12:12:54;6.80;;;3.95;;
21941;SDS011;11135;54.192;15.670;2023-05-07T12:16:08;11.00;;;4.07;;
21941;SDS011;11135;54.192;15.670;2023-05-07T12:19:13;9.18;;;4.50;;
21941;SDS011;11135;54.192;15.670;2023-05-07T12:22:19;7.18;;;4.00;;
21941;SDS011;11135;54.192;15.670;2023-05-07T12:25:29;7.50;;;3.63;;
21941;SDS011;11135;54.192;15.670;2023-05-07T12:28:38;8.70;;;4.53;;
21941;SDS011;11135;54.192;15.670;2023-05-07T12:31:46;5.07;;;3.25;;
21941;SDS011;11135;54.192;15.670;2023-05-07T12:34:51;6.70;;;3.92;;
21941;SDS011;11135;54.192;15.670;2023-05-07T12:37:57;6.55;;;3.60;;
21941;SDS011;11135;54.192;15.670;2023-05-07T12:41:10;8.50;;;3.25;;
21941;SDS011;11135;54.192;15.670;2023-05-07T12:44:16;9.15;;;4.75;;
21941;SDS011;11135;54.192;15.670;2023-05-07T12:47:21;7.00;;;3.13;;
21941;SDS011;11135;54.192;15.670;2023-05-07T12:50:30;5.63;;;3.28;;
21941;SDS011;11135;54.192;15.670;2023-05-07T12:53:39;7.88;;;3.92;;
21941;SDS011;11135;54.192;15.670;2023-05-07T12:56:47;5.78;;;3.10;;
21941;SDS011;11135;54.192;15.670;2023-05-07T12:59:57;5.90;;;2.92;;
21941;SDS011;11135;54.192;15.670;2023-05-07T13:03:03;5.53;;;3.17;;
21941;SDS011;11135;54.192;15.670;2023-05-07T13:06:09;7.05;;;2.65;;
21941;SDS011;11135;54.192;15.670;2023-05-07T13:09:16;6.57;;;3.75;;
21941;SDS011;11135;54.192;15.670;2023-05-07T13:12:24;8.20;;;3.78;;
21941;SDS011;11135;54.192;15.670;2023-05-07T13:15:30;5.88;;;3.55;;
21941;SDS011;11135;54.192;15.670;2023-05-07T13:18:37;7.72;;;3.42;;
21941;SDS011;11135;54.192;15.670;2023-05-07T13:21:43;6.57;;;3.70;;
21941;SDS011;11135;54.192;15.670;2023-05-07T13:24:52;8.02;;;4.05;;
21941;SDS011;11135;54.192;15.670;2023-05-07T13:28:00;6.28;;;3.40;;
21941;SDS011;11135;54.192;15.670;2023-05-07T13:31:12;6.38;;;3.50;;
21941;SDS011;11135;54.192;15.670;2023-05-07T13:34:19;7.60;;;3.35;;
21941;SDS011;11135;54.192;15.670;2023-05-07T13:37:25;5.10;;;2.85;;
21941;SDS011;11135;54.192;15.670;2023-05-07T13:40:30;5.85;;;3.25;;
21941;SDS011;11135;54.192;15.670;2023-05-07T13:43:38;6.07;;;3.17;;
21941;SDS011;11135;54.192;15.670;2023-05-07T13:46:44;5.63;;;3.20;;
21941;SDS011;11135;54.192;15.670;2023-05-07T13:49:52;5.28;;;2.75;;
21941;SDS011;11135;54.192;15.670;2023-05-07T13:52:59;8.20;;;2.70;;
21941;SDS011;11135;54.192;15.670;2023-05-07T13:56:12;6.80;;;3.47;;
21941;SDS011;11135;54.192;15.670;2023-05-07T13:59:20;7.57;;;3.20;;
21941;SDS011;11135;54.192;15.670;2023-05-07T14:02:26;9.80;;;2.85;;
21941;SDS011;11135;54.192;15.670;2023-05-07T14:05:33;8.07;;;3.15;;
21941;SDS011;11135;54.192;15.670;2023-05-07T14:08:38;7.40;;;3.58;;
21941;SDS011;11135;54.192;15.670;2023-05-07T14:11:43;4.85;;;2.88;;
21941;SDS011;11135;54.192;15.670;2023-05-07T14:14:52;6.40;;;3.08;;
21941;SDS011;11135;54.192;15.670;2023-05-07T14:17:59;7.68;;;3.30;;
21941;SDS011;11135;54.192;15.670;2023-05-07T14:21:05;6.40;;;3.05;;
21941;SDS011;11135;54.192;15.670;2023-05-07T14:24:21;7.70;;;3.20;;
21941;SDS011;11135;54.192;15.670;2023-05-07T14:27:39;7.05;;;3.17;;
21941;SDS011;11135;54.192;15.670;2023-05-07T14:30:50;4.65;;;2.50;;
21941;SDS011;11135;54.192;15.670;2023-05-07T14:33:55;6.22;;;2.97;;
21941;SDS011;11135;54.192;15.670;2023-05-07T14:37:01;7.40;;;2.83;;
21941;SDS011;11135;54.192;15.670;2023-05-07T14:40:07;5.45;;;2.60;;
21941;SDS011;11135;54.192;15.670;2023-05-07T14:43:13;10.30;;;3.63;;
21941;SDS011;11135;54.192;15.670;2023-05-07T14:46:23;5.90;;;2.97;;
21941;SDS011;11135;54.192;15.670;2023-05-07T14:49:28;5.85;;;3.30;;
21941;SDS011;11135;54.192;15.670;2023-05-07T14:52:36;7.15;;;2.80;;
21941;SDS011;11135;54.192;15.670;2023-05-07T14:55:41;7.68;;;3.00;;
21941;SDS011;11135;54.192;15.670;2023-05-07T14:58:47;5.07;;;2.83;;
21941;SDS011;11135;54.192;15.670;2023-05-07T15:01:55;5.57;;;2.60;;
21941;SDS011;11135;54.192;15.670;2023-05-07T15:05:01;4.80;;;2.70;;
21941;SDS011;11135;54.192;15.670;2023-05-07T15:08:06;5.72;;;2.63;;
21941;SDS011;11135;54.192;15.670;2023-05-07T15:11:12;5.78;;;2.78;;
21941;SDS011;11135;54.192;15.670;2023-05-07T15:14:19;4.50;;;2.58;;
21941;SDS011;11135;54.192;15.670;2023-05-07T15:17:27;7.30;;;2.92;;
21941;SDS011;11135;54.192;15.670;2023-05-07T15:20:32;6.95;;;2.60;;
21941;SDS011;11135;54.192;15.670;2023-05-07T15:23:38;6.00;;;2.47;;
21941;SDS011;11135;54.192;15.670;2023-05-07T15:26:43;4.93;;;2.35;;
21941;SDS011;11135;54.192;15.670;2023-05-07T15:29:58;4.90;;;2.15;;
21941;SDS011;11135;54.192;15.670;2023-05-07T15:33:05;5.32;;;2.50;;
21941;SDS011;11135;54.192;15.670;2023-05-07T15:36:13;5.22;;;2.58;;
21941;SDS011;11135;54.192;15.670;2023-05-07T15:39:23;5.13;;;2.33;;
21941;SDS011;11135;54.192;15.670;2023-05-07T15:42:29;4.53;;;2.33;;
21941;SDS011;11135;54.192;15.670;2023-05-07T15:45:38;8.05;;;2.97;;
21941;SDS011;11135;54.192;15.670;2023-05-07T15:48:49;7.72;;;3.72;;
21941;SDS011;11135;54.192;15.670;2023-05-07T15:51:54;4.60;;;2.30;;
21941;SDS011;11135;54.192;15.670;2023-05-07T15:55:00;6.10;;;2.30;;
21941;SDS011;11135;54.192;15.670;2023-05-07T15:58:05;5.35;;;2.33;;
21941;SDS011;11135;54.192;15.670;2023-05-07T16:01:12;4.20;;;2.15;;
21941;SDS011;11135;54.192;15.670;2023-05-07T16:04:20;4.88;;;2.10;;
21941;SDS011;11135;54.192;15.670;2023-05-07T16:07:25;5.43;;;2.80;;
21941;SDS011;11135;54.192;15.670;2023-05-07T16:10:41;7.25;;;2.85;;
21941;SDS011;11135;54.192;15.670;2023-05-07T16:13:47;4.90;;;2.17;;
21941;SDS011;11135;54.192;15.670;2023-05-07T16:16:52;4.57;;;2.30;;
21941;SDS011;11135;54.192;15.670;2023-05-07T16:20:01;9.30;;;3.33;;
21941;SDS011;11135;54.192;15.670;2023-05-07T16:23:07;5.40;;;1.85;;
21941;SDS011;11135;54.192;15.670;2023-05-07T16:26:14;7.22;;;2.22;;
21941;SDS011;11135;54.192;15.670;2023-05-07T16:29:19;4.55;;;2.25;;
21941;SDS011;11135;54.192;15.670;2023-05-07T16:32:25;5.43;;;2.38;;
21941;SDS011;11135;54.192;15.670;2023-05-07T16:35:34;6.63;;;2.53;;
21941;SDS011;11135;54.192;15.670;2023-05-07T16:38:39;4.40;;;2.17;;
21941;SDS011;11135;54.192;15.670;2023-05-07T16:41:44;4.97;;;2.40;;
21941;SDS011;11135;54.192;15.670;2023-05-07T16:44:54;8.80;;;2.70;;
21941;SDS011;11135;54.192;15.670;2023-05-07T16:48:00;7.35;;;2.80;;
21941;SDS011;11135;54.192;15.670;2023-05-07T16:51:09;8.00;;;2.28;;
21941;SDS011;11135;54.192;15.670;2023-05-07T16:54:15;8.30;;;2.88;;
21941;SDS011;11135;54.192;15.670;2023-05-07T16:57:20;7.85;;;2.60;;
21941;SDS011;11135;54.192;15.670;2023-05-07T17:00:26;7.32;;;2.25;;
21941;SDS011;11135;54.192;15.670;2023-05-07T17:03:50;6.55;;;2.40;;
21941;SDS011;11135;54.192;15.670;2023-05-07T17:06:58;6.82;;;2.50;;
21941;SDS011;11135;54.192;15.670;2023-05-07T17:10:05;6.07;;;2.50;;
21941;SDS011;11135;54.192;15.670;2023-05-07T17:13:10;7.45;;;2.75;;
21941;SDS011;11135;54.192;15.670;2023-05-07T17:16:17;8.50;;;2.45;;
21941;SDS011;11135;54.192;15.670;2023-05-07T17:19:25;8.80;;;2.83;;
21941;SDS011;11135;54.192;15.670;2023-05-07T17:22:33;5.20;;;2.65;;
21941;SDS011;11135;54.192;15.670;2023-05-07T17:25:38;7.63;;;2.45;;
21941;SDS011;11135;54.192;15.670;2023-05-07T17:28:48;6.05;;;2.78;;
21941;SDS011;11135;54.192;15.670;2023-05-07T17:31:53;4.55;;;1.95;;
21941;SDS011;11135;54.192;15.670;2023-05-07T17:34:58;12.65;;;2.60;;
21941;SDS011;11135;54.192;15.670;2023-05-07T17:38:06;5.28;;;3.00;;
21941;SDS011;11135;54.192;15.670;2023-05-07T17:41:12;7.80;;;2.60;;
21941;SDS011;11135;54.192;15.670;2023-05-07T17:44:17;4.38;;;2.40;;
21941;SDS011;11135;54.192;15.670;2023-05-07T17:47:25;5.40;;;2.83;;
21941;SDS011;11135;54.192;15.670;2023-05-07T17:50:30;7.00;;;2.85;;
21941;SDS011;11135;54.192;15.670;2023-05-07T17:53:39;9.57;;;3.17;;
21941;SDS011;11135;54.192;15.670;2023-05-07T17:56:46;7.85;;;3.17;;
21941;SDS011;11135;54.192;15.670;2023-05-07T18:00:03;9.00;;;3.00;;
21941;SDS011;11135;54.192;15.670;2023-05-07T18:03:11;9.25;;;2.65;;
21941;SDS011;11135;54.192;15.670;2023-05-07T18:06:18;4.38;;;2.35;;
21941;SDS011;11135;54.192;15.670;2023-05-07T18:09:31;8.27;;;2.70;;
21941;SDS011;11135;54.192;15.670;2023-05-07T18:12:36;7.68;;;3.72;;
21941;SDS011;11135;54.192;15.670;2023-05-07T18:15:44;8.18;;;2.63;;
21941;SDS011;11135;54.192;15.670;2023-05-07T18:18:49;6.95;;;2.97;;
21941;SDS011;11135;54.192;15.670;2023-05-07T18:21:55;10.90;;;3.30;;
21941;SDS011;11135;54.192;15.670;2023-05-07T18:25:05;10.23;;;2.90;;
21941;SDS011;11135;54.192;15.670;2023-05-07T18:28:12;11.60;;;3.17;;
21941;SDS011;11135;54.192;15.670;2023-05-07T18:31:19;7.20;;;3.53;;
21941;SDS011;11135;54.192;15.670;2023-05-07T18:34:25;5.93;;;3.03;;
21941;SDS011;11135;54.192;15.670;2023-05-07T18:37:33;8.70;;;4.00;;
21941;SDS011;11135;54.192;15.670;2023-05-07T18:40:43;6.95;;;3.85;;
21941;SDS011;11135;54.192;15.670;2023-05-07T18:43:49;8.32;;;3.22;;